sensor_id;sensor_type;location;lat;lon;timestamp;pressure;altitude;pressure_sealevel;temperature;humidity
64460;BME280;50828;53.756;21.140;2023-12-20T00:02:12;98720.90;;;6.46;76.02
64460;BME280;50828;53.756;21.140;2023-12-20T00:07:20;98720.33;;;6.48;75.92
64460;BME280;50828;53.756;21.140;2023-12-20T00:12:27;98711.92;;;6.47;76.20
64460;BME280;50828;53.756;21.140;2023-12-20T00:17:35;98716.99;;;6.48;76.08
64460;BME280;50828;53.756;21.140;2023-12-20T00:22:42;98718.84;;;6.49;76.06
64460;BME280;50828;53.756;21.140;2023-12-20T00:27:51;98713.38;;;6.50;75.94
64460;BME280;50828;53.756;21.140;2023-12-20T00:33:00;98717.20;;;6.51;75.97
64460;BME280;50828;53.756;21.140;2023-12-20T00:38:09;98718.98;;;6.50;75.89
64460;BME280;50828;53.756;21.140;2023-12-20T00:43:18;98723.88;;;6.50;75.86
64460;BME280;50828;53.756;21.140;2023-12-20T00:48:26;98722.30;;;6.50;75.85
64460;BME280;50828;53.756;21.140;2023-12-20T00:53:36;98726.81;;;6.51;75.82
64460;BME280;50828;53.756;21.140;2023-12-20T00:58:45;98714.91;;;6.51;75.87
64460;BME280;50828;53.756;21.140;2023-12-20T01:03:53;98721.02;;;6.51;75.79
64460;BME280;50828;53.756;21.140;2023-12-20T01:09:02;98721.36;;;6.52;75.92
64460;BME280;50828;53.756;21.140;2023-12-20T01:14:12;98712.60;;;6.52;75.85
64460;BME280;50828;53.756;21.140;2023-12-20T01:19:20;98705.64;;;6.51;75.80
64460;BME280;50828;53.756;21.140;2023-12-20T01:24:28;98705.48;;;6.51;75.91
64460;BME280;50828;53.756;21.140;2023-12-20T01:29:37;98697.31;;;6.50;76.05
64460;BME280;50828;53.756;21.140;2023-12-20T01:34:45;98684.86;;;6.51;75.83
64460;BME280;50828;53.756;21.140;2023-12-20T01:39:54;98673.33;;;6.50;75.91
64460;BME280;50828;53.756;21.140;2023-12-20T01:45:02;98665.80;;;6.51;75.96
64460;BME280;50828;53.756;21.140;2023-12-20T01:50:11;98655.34;;;6.50;76.04
64460;BME280;50828;53.756;21.140;2023-12-20T01:55:19;98647.30;;;6.50;75.90
64460;BME280;50828;53.756;21.140;2023-12-20T02:00:29;98640.97;;;6.50;75.96
64460;BME280;50828;53.756;21.140;2023-12-20T02:05:39;98638.00;;;6.50;76.05
64460;BME280;50828;53.756;21.140;2023-12-20T02:10:48;98636.55;;;6.51;75.98
64460;BME280;50828;53.756;21.140;2023-12-20T02:15:56;98631.64;;;6.52;75.91
64460;BME280;50828;53.756;21.140;2023-12-20T02:21:05;98631.45;;;6.52;76.05
64460;BME280;50828;53.756;21.140;2023-12-20T02:26:14;98626.36;;;6.52;76.04
64460;BME280;50828;53.756;21.140;2023-12-20T02:31:23;98628.55;;;6.54;75.85
64460;BME280;50828;53.756;21.140;2023-12-20T02:36:31;98624.50;;;6.54;76.02
64460;BME280;50828;53.756;21.140;2023-12-20T02:41:39;98622.20;;;6.55;76.06
64460;BME280;50828;53.756;21.140;2023-12-20T02:46:48;98617.66;;;6.55;76.09
64460;BME280;50828;53.756;21.140;2023-12-20T02:51:56;98611.21;;;6.54;75.93
64460;BME280;50828;53.756;21.140;2023-12-20T02:57:05;98603.15;;;6.55;76.04
64460;BME280;50828;53.756;21.140;2023-12-20T03:02:13;98603.16;;;6.54;76.14
64460;BME280;50828;53.756;21.140;2023-12-20T03:07:22;98601.79;;;6.54;76.01
64460;BME280;50828;53.756;21.140;2023-12-20T03:12:30;98604.27;;;6.53;76.00
64460;BME280;50828;53.756;21.140;2023-12-20T03:17:38;98608.89;;;6.55;76.11
64460;BME280;50828;53.756;21.140;2023-12-20T03:22:47;98602.16;;;6.57;75.98
64460;BME280;50828;53.756;21.140;2023-12-20T03:27:55;98601.77;;;6.58;76.08
64460;BME280;50828;53.756;21.140;2023-12-20T03:33:04;98605.08;;;6.59;76.17
64460;BME280;50828;53.756;21.140;2023-12-20T03:38:13;98606.58;;;6.60;75.95
64460;BME280;50828;53.756;21.140;2023-12-20T03:43:20;98606.38;;;6.60;76.21
64460;BME280;50828;53.756;21.140;2023-12-20T03:48:27;98603.70;;;6.61;76.02
64460;BME280;50828;53.756;21.140;2023-12-20T03:53:35;98604.14;;;6.63;76.05
64460;BME280;50828;53.756;21.140;2023-12-20T03:58:42;98606.23;;;6.64;76.12
64460;BME280;50828;53.756;21.140;2023-12-20T04:03:49;98577.38;;;6.49;76.05
64460;BME280;50828;53.756;21.140;2023-12-20T04:08:57;98595.79;;;6.62;76.17
64460;BME280;50828;53.756;21.140;2023-12-20T04:14:04;98602.34;;;6.64;76.10
64460;BME280;50828;53.756;21.140;2023-12-20T04:19:12;98597.63;;;6.64;76.33
64460;BME280;50828;53.756;21.140;2023-12-20T04:24:20;98602.95;;;6.66;76.28
64460;BME280;50828;53.756;21.140;2023-12-20T04:29:28;98605.39;;;6.67;76.15
64460;BME280;50828;53.756;21.140;2023-12-20T04:34:35;98601.73;;;6.66;76.13
64460;BME280;50828;53.756;21.140;2023-12-20T04:39:43;98599.55;;;6.68;76.01
64460;BME280;50828;53.756;21.140;2023-12-20T04:44:50;98600.28;;;6.71;76.24
64460;BME280;50828;53.756;21.140;2023-12-20T04:49:58;98596.14;;;6.73;76.16
64460;BME280;50828;53.756;21.140;2023-12-20T04:55:06;98601.64;;;6.75;76.22
64460;BME280;50828;53.756;21.140;2023-12-20T05:00:15;98613.62;;;6.77;76.07
64460;BME280;50828;53.756;21.140;2023-12-20T05:05:24;98616.02;;;6.82;76.18
64460;BME280;50828;53.756;21.140;2023-12-20T05:10:31;98622.96;;;6.87;76.22
64460;BME280;50828;53.756;21.140;2023-12-20T05:15:38;98627.09;;;6.88;75.77
64460;BME280;50828;53.756;21.140;2023-12-20T05:20:46;98629.25;;;6.87;75.73
64460;BME280;50828;53.756;21.140;2023-12-20T05:25:53;98629.88;;;6.85;75.41
64460;BME280;50828;53.756;21.140;2023-12-20T05:31:01;98631.48;;;6.81;75.50
64460;BME280;50828;53.756;21.140;2023-12-20T05:36:09;98636.57;;;6.77;75.51
64460;BME280;50828;53.756;21.140;2023-12-20T05:41:19;98646.06;;;6.72;75.25
64460;BME280;50828;53.756;21.140;2023-12-20T05:46:27;98645.31;;;6.69;75.17
64460;BME280;50828;53.756;21.140;2023-12-20T05:51:35;98644.80;;;6.66;75.12
64460;BME280;50828;53.756;21.140;2023-12-20T05:56:42;98641.84;;;6.62;74.99
64460;BME280;50828;53.756;21.140;2023-12-20T06:01:49;98637.11;;;6.58;74.96
64460;BME280;50828;53.756;21.140;2023-12-20T06:06:57;98631.34;;;6.54;74.94
64460;BME280;50828;53.756;21.140;2023-12-20T06:12:06;98637.25;;;6.51;74.89
64460;BME280;50828;53.756;21.140;2023-12-20T06:17:13;98639.35;;;6.47;74.80
64460;BME280;50828;53.756;21.140;2023-12-20T06:22:21;98645.23;;;6.42;74.74
64460;BME280;50828;53.756;21.140;2023-12-20T06:27:28;98639.31;;;6.37;74.65
64460;BME280;50828;53.756;21.140;2023-12-20T06:32:38;98631.14;;;6.32;74.65
64460;BME280;50828;53.756;21.140;2023-12-20T06:37:45;98634.11;;;6.29;74.64
64460;BME280;50828;53.756;21.140;2023-12-20T06:42:53;98637.20;;;6.22;74.42
64460;BME280;50828;53.756;21.140;2023-12-20T06:48:13;98643.73;;;6.17;74.33
64460;BME280;50828;53.756;21.140;2023-12-20T06:53:21;98640.64;;;6.12;74.25
64460;BME280;50828;53.756;21.140;2023-12-20T06:58:28;98651.02;;;6.06;74.31
64460;BME280;50828;53.756;21.140;2023-12-20T07:03:35;98656.73;;;5.99;74.16
64460;BME280;50828;53.756;21.140;2023-12-20T07:08:43;98662.54;;;5.94;74.07
64460;BME280;50828;53.756;21.140;2023-12-20T07:13:50;98659.58;;;5.86;74.02
64460;BME280;50828;53.756;21.140;2023-12-20T07:18:57;98660.28;;;5.78;73.94
64460;BME280;50828;53.756;21.140;2023-12-20T07:24:05;98659.78;;;5.69;74.01
64460;BME280;50828;53.756;21.140;2023-12-20T07:29:13;98662.89;;;5.62;73.98
64460;BME280;50828;53.756;21.140;2023-12-20T07:34:20;98658.89;;;5.54;73.95
64460;BME280;50828;53.756;21.140;2023-12-20T07:39:27;98658.98;;;5.47;73.72
64460;BME280;50828;53.756;21.140;2023-12-20T07:44:35;98651.15;;;5.34;73.63
64460;BME280;50828;53.756;21.140;2023-12-20T07:49:42;98657.16;;;5.28;73.54
64460;BME280;50828;53.756;21.140;2023-12-20T07:54:50;98654.02;;;5.20;73.64
64460;BME280;50828;53.756;21.140;2023-12-20T07:59:57;98646.25;;;5.13;73.61
64460;BME280;50828;53.756;21.140;2023-12-20T08:05:05;98651.11;;;5.05;73.53
64460;BME280;50828;53.756;21.140;2023-12-20T08:10:12;98656.08;;;4.99;73.80
64460;BME280;50828;53.756;21.140;2023-12-20T08:15:20;98642.81;;;4.86;73.72
64460;BME280;50828;53.756;21.140;2023-12-20T08:20:27;98646.75;;;4.89;73.87
64460;BME280;50828;53.756;21.140;2023-12-20T08:25:44;98649.29;;;4.85;74.00
64460;BME280;50828;53.756;21.140;2023-12-20T08:30:52;98639.20;;;4.85;74.28
64460;BME280;50828;53.756;21.140;2023-12-20T08:36:00;98636.48;;;4.87;74.18
64460;BME280;50828;53.756;21.140;2023-12-20T08:41:11;98636.58;;;4.89;74.25
64460;BME280;50828;53.756;21.140;2023-12-20T08:46:18;98635.05;;;4.92;74.56
64460;BME280;50828;53.756;21.140;2023-12-20T08:51:25;98624.36;;;4.90;74.39
64460;BME280;50828;53.756;21.140;2023-12-20T08:56:33;98634.22;;;5.00;74.56
64460;BME280;50828;53.756;21.140;2023-12-20T09:01:40;98623.88;;;5.06;74.50
64460;BME280;50828;53.756;21.140;2023-12-20T09:06:48;98617.41;;;5.10;74.47
64460;BME280;50828;53.756;21.140;2023-12-20T09:11:55;98617.58;;;5.14;74.31
64460;BME280;50828;53.756;21.140;2023-12-20T09:17:02;98621.27;;;5.18;74.31
64460;BME280;50828;53.756;21.140;2023-12-20T09:22:10;98617.29;;;5.21;74.37
64460;BME280;50828;53.756;21.140;2023-12-20T09:27:17;98613.21;;;5.23;74.26
64460;BME280;50828;53.756;21.140;2023-12-20T09:32:24;98613.97;;;5.26;74.24
64460;BME280;50828;53.756;21.140;2023-12-20T09:37:32;98613.15;;;5.29;74.43
64460;BME280;50828;53.756;21.140;2023-12-20T09:42:48;98600.84;;;5.30;74.27
64460;BME280;50828;53.756;21.140;2023-12-20T09:47:59;98598.27;;;5.34;74.45
64460;BME280;50828;53.756;21.140;2023-12-20T09:53:09;98598.52;;;5.36;74.52
64460;BME280;50828;53.756;21.140;2023-12-20T09:58:17;98599.24;;;5.40;74.53
64460;BME280;50828;53.756;21.140;2023-12-20T10:03:26;98589.55;;;5.42;74.55
64460;BME280;50828;53.756;21.140;2023-12-20T10:08:34;98584.17;;;5.45;74.47
64460;BME280;50828;53.756;21.140;2023-12-20T10:13:42;98571.13;;;5.48;74.33
64460;BME280;50828;53.756;21.140;2023-12-20T10:18:51;98565.30;;;5.49;74.49
64460;BME280;50828;53.756;21.140;2023-12-20T10:24:00;98553.77;;;5.49;74.60
64460;BME280;50828;53.756;21.140;2023-12-20T10:29:07;98548.52;;;5.50;74.44
64460;BME280;50828;53.756;21.140;2023-12-20T10:34:15;98553.74;;;5.54;74.40
64460;BME280;50828;53.756;21.140;2023-12-20T10:39:23;98552.39;;;5.57;74.36
64460;BME280;50828;53.756;21.140;2023-12-20T10:44:31;98546.30;;;5.60;74.56
64460;BME280;50828;53.756;21.140;2023-12-20T10:49:40;98529.59;;;5.59;74.17
64460;BME280;50828;53.756;21.140;2023-12-20T10:54:49;98530.67;;;5.58;74.16
64460;BME280;50828;53.756;21.140;2023-12-20T10:59:58;98527.23;;;5.57;74.22
64460;BME280;50828;53.756;21.140;2023-12-20T11:05:10;98525.33;;;5.57;74.30
64460;BME280;50828;53.756;21.140;2023-12-20T11:10:25;98522.14;;;5.58;74.16
64460;BME280;50828;53.756;21.140;2023-12-20T11:15:34;98517.52;;;5.55;73.71
64460;BME280;50828;53.756;21.140;2023-12-20T11:20:42;98511.57;;;5.56;73.91
64460;BME280;50828;53.756;21.140;2023-12-20T11:25:53;98506.56;;;5.54;73.50
64460;BME280;50828;53.756;21.140;2023-12-20T11:31:02;98501.95;;;5.52;73.66
64460;BME280;50828;53.756;21.140;2023-12-20T11:36:18;98493.36;;;5.49;73.47
64460;BME280;50828;53.756;21.140;2023-12-20T11:41:27;98492.03;;;5.48;73.29
64460;BME280;50828;53.756;21.140;2023-12-20T11:46:34;98481.23;;;5.43;73.21
64460;BME280;50828;53.756;21.140;2023-12-20T11:51:44;98466.95;;;5.39;72.90
64460;BME280;50828;53.756;21.140;2023-12-20T11:56:51;98447.35;;;5.32;72.79
64460;BME280;50828;53.756;21.140;2023-12-20T12:02:00;98445.88;;;5.26;72.90
64460;BME280;50828;53.756;21.140;2023-12-20T12:07:07;98437.98;;;5.23;72.90
64460;BME280;50828;53.756;21.140;2023-12-20T12:12:16;98431.21;;;5.18;72.89
64460;BME280;50828;53.756;21.140;2023-12-20T12:17:25;98421.73;;;5.15;72.81
64460;BME280;50828;53.756;21.140;2023-12-20T12:22:33;98423.47;;;5.11;72.80
64460;BME280;50828;53.756;21.140;2023-12-20T12:27:43;98422.31;;;5.06;72.47
64460;BME280;50828;53.756;21.140;2023-12-20T12:32:52;98401.63;;;5.01;72.68
64460;BME280;50828;53.756;21.140;2023-12-20T12:38:00;98388.83;;;4.99;72.59
64460;BME280;50828;53.756;21.140;2023-12-20T12:43:09;98385.77;;;4.96;72.59
64460;BME280;50828;53.756;21.140;2023-12-20T12:48:19;98375.87;;;4.95;72.76
64460;BME280;50828;53.756;21.140;2023-12-20T12:53:28;98369.02;;;4.96;72.71
64460;BME280;50828;53.756;21.140;2023-12-20T12:58:36;98358.58;;;4.96;72.85
64460;BME280;50828;53.756;21.140;2023-12-20T13:03:43;98361.23;;;4.99;72.63
64460;BME280;50828;53.756;21.140;2023-12-20T13:08:51;98350.02;;;5.00;72.56
64460;BME280;50828;53.756;21.140;2023-12-20T13:13:58;98343.50;;;5.01;72.48
64460;BME280;50828;53.756;21.140;2023-12-20T13:19:06;98331.48;;;5.01;72.54
64460;BME280;50828;53.756;21.140;2023-12-20T13:24:14;98322.63;;;5.00;72.54
64460;BME280;50828;53.756;21.140;2023-12-20T13:29:21;98319.63;;;5.01;72.63
64460;BME280;50828;53.756;21.140;2023-12-20T13:34:29;98320.80;;;5.02;72.50
64460;BME280;50828;53.756;21.140;2023-12-20T13:39:36;98322.23;;;5.01;72.29
64460;BME280;50828;53.756;21.140;2023-12-20T13:44:44;98318.27;;;5.00;72.31
64460;BME280;50828;53.756;21.140;2023-12-20T13:49:52;98319.65;;;5.00;72.56
64460;BME280;50828;53.756;21.140;2023-12-20T13:55:02;98316.23;;;4.99;72.47
64460;BME280;50828;53.756;21.140;2023-12-20T14:00:13;98317.64;;;4.99;72.26
64460;BME280;50828;53.756;21.140;2023-12-20T14:05:21;98311.60;;;4.97;72.23
64460;BME280;50828;53.756;21.140;2023-12-20T14:10:33;98304.29;;;4.96;72.21
64460;BME280;50828;53.756;21.140;2023-12-20T14:15:41;98294.31;;;4.97;72.16
64460;BME280;50828;53.756;21.140;2023-12-20T14:20:49;98290.83;;;4.97;72.29
64460;BME280;50828;53.756;21.140;2023-12-20T14:25:57;98282.58;;;4.98;72.32
64460;BME280;50828;53.756;21.140;2023-12-20T14:31:05;98280.68;;;4.98;72.31
64460;BME280;50828;53.756;21.140;2023-12-20T14:36:13;98276.95;;;4.96;72.28
64460;BME280;50828;53.756;21.140;2023-12-20T14:41:23;98280.63;;;4.95;72.42
64460;BME280;50828;53.756;21.140;2023-12-20T14:46:34;98278.00;;;4.95;72.34
64460;BME280;50828;53.756;21.140;2023-12-20T14:51:46;98268.59;;;4.95;72.42
64460;BME280;50828;53.756;21.140;2023-12-20T14:56:55;98256.56;;;4.94;72.47
64460;BME280;50828;53.756;21.140;2023-12-20T15:02:11;98253.27;;;4.94;72.74
64460;BME280;50828;53.756;21.140;2023-12-20T15:07:20;98245.07;;;4.94;72.68
64460;BME280;50828;53.756;21.140;2023-12-20T15:12:28;98238.65;;;4.94;72.77
64460;BME280;50828;53.756;21.140;2023-12-20T15:17:35;98234.80;;;4.93;72.73
64460;BME280;50828;53.756;21.140;2023-12-20T15:22:44;98226.77;;;4.94;72.64
64460;BME280;50828;53.756;21.140;2023-12-20T15:27:51;98229.40;;;4.94;72.69
64460;BME280;50828;53.756;21.140;2023-12-20T15:33:00;98221.02;;;4.93;72.69
64460;BME280;50828;53.756;21.140;2023-12-20T15:38:14;98213.93;;;4.92;72.77
64460;BME280;50828;53.756;21.140;2023-12-20T15:43:23;98206.10;;;4.92;73.00
64460;BME280;50828;53.756;21.140;2023-12-20T15:48:33;98197.26;;;4.91;72.99
64460;BME280;50828;53.756;21.140;2023-12-20T15:53:42;98188.19;;;4.91;73.12
64460;BME280;50828;53.756;21.140;2023-12-20T15:58:50;98189.44;;;4.90;73.18
64460;BME280;50828;53.756;21.140;2023-12-20T16:04:01;98177.82;;;4.89;73.27
64460;BME280;50828;53.756;21.140;2023-12-20T16:09:09;98170.42;;;4.87;73.38
64460;BME280;50828;53.756;21.140;2023-12-20T16:14:19;98165.63;;;4.85;73.43
64460;BME280;50828;53.756;21.140;2023-12-20T16:19:27;98165.66;;;4.85;73.68
64460;BME280;50828;53.756;21.140;2023-12-20T16:24:35;98169.09;;;4.85;73.78
64460;BME280;50828;53.756;21.140;2023-12-20T16:29:44;98162.95;;;4.86;73.69
64460;BME280;50828;53.756;21.140;2023-12-20T16:34:52;98155.69;;;4.88;73.78
64460;BME280;50828;53.756;21.140;2023-12-20T16:40:00;98148.41;;;4.91;73.67
64460;BME280;50828;53.756;21.140;2023-12-20T16:45:11;98144.76;;;4.91;73.68
64460;BME280;50828;53.756;21.140;2023-12-20T16:50:20;98136.67;;;4.92;73.66
64460;BME280;50828;53.756;21.140;2023-12-20T16:55:29;98130.17;;;4.93;73.87
64460;BME280;50828;53.756;21.140;2023-12-20T17:00:38;98126.35;;;4.93;73.77
64460;BME280;50828;53.756;21.140;2023-12-20T17:05:47;98121.36;;;4.95;73.69
64460;BME280;50828;53.756;21.140;2023-12-20T17:10:55;98117.52;;;4.95;73.59
64460;BME280;50828;53.756;21.140;2023-12-20T17:16:07;98103.73;;;4.95;73.71
64460;BME280;50828;53.756;21.140;2023-12-20T17:21:14;98091.66;;;4.96;73.57
64460;BME280;50828;53.756;21.140;2023-12-20T17:26:22;98085.38;;;4.96;73.52
64460;BME280;50828;53.756;21.140;2023-12-20T17:31:31;98075.61;;;4.96;73.52
64460;BME280;50828;53.756;21.140;2023-12-20T17:36:39;98069.67;;;4.96;73.54
64460;BME280;50828;53.756;21.140;2023-12-20T17:41:47;98061.79;;;4.97;73.27
64460;BME280;50828;53.756;21.140;2023-12-20T17:46:55;98058.14;;;4.96;73.46
64460;BME280;50828;53.756;21.140;2023-12-20T17:52:02;98048.30;;;4.98;73.37
64460;BME280;50828;53.756;21.140;2023-12-20T17:57:12;98042.89;;;5.02;73.34
64460;BME280;50828;53.756;21.140;2023-12-20T18:02:21;98039.67;;;5.03;73.43
64460;BME280;50828;53.756;21.140;2023-12-20T18:07:29;98038.09;;;5.03;73.33
64460;BME280;50828;53.756;21.140;2023-12-20T18:12:36;98031.55;;;5.05;73.20
64460;BME280;50828;53.756;21.140;2023-12-20T18:17:45;98023.90;;;5.08;73.34
64460;BME280;50828;53.756;21.140;2023-12-20T18:22:53;98018.55;;;5.10;73.21
64460;BME280;50828;53.756;21.140;2023-12-20T18:28:01;98016.69;;;5.09;73.24
64460;BME280;50828;53.756;21.140;2023-12-20T18:33:09;97997.92;;;4.97;73.13
64460;BME280;50828;53.756;21.140;2023-12-20T18:38:19;98010.66;;;4.97;73.38
64460;BME280;50828;53.756;21.140;2023-12-20T18:43:28;98012.81;;;4.92;73.29
64460;BME280;50828;53.756;21.140;2023-12-20T18:48:37;98020.84;;;4.89;73.38
64460;BME280;50828;53.756;21.140;2023-12-20T18:53:46;98017.20;;;4.85;73.38
64460;BME280;50828;53.756;21.140;2023-12-20T18:58:54;98020.08;;;4.80;73.48
64460;BME280;50828;53.756;21.140;2023-12-20T19:04:04;98021.58;;;4.74;73.41
64460;BME280;50828;53.756;21.140;2023-12-20T19:09:11;98024.58;;;4.66;73.38
64460;BME280;50828;53.756;21.140;2023-12-20T19:14:19;98026.77;;;4.57;73.43
64460;BME280;50828;53.756;21.140;2023-12-20T19:19:27;98022.98;;;4.49;73.35
64460;BME280;50828;53.756;21.140;2023-12-20T19:24:40;98032.98;;;4.40;73.53
64460;BME280;50828;53.756;21.140;2023-12-20T19:29:46;98040.05;;;4.35;73.92
64460;BME280;50828;53.756;21.140;2023-12-20T19:34:53;98044.55;;;4.32;73.96
64460;BME280;50828;53.756;21.140;2023-12-20T19:40:02;98045.04;;;4.29;73.80
64460;BME280;50828;53.756;21.140;2023-12-20T19:45:11;98048.77;;;4.27;73.93
64460;BME280;50828;53.756;21.140;2023-12-20T19:50:21;98034.52;;;4.19;73.72
64460;BME280;50828;53.756;21.140;2023-12-20T19:55:30;98047.75;;;4.23;73.80
64460;BME280;50828;53.756;21.140;2023-12-20T20:00:39;98048.72;;;4.25;73.77
64460;BME280;50828;53.756;21.140;2023-12-20T20:05:59;98051.41;;;4.27;73.59
64460;BME280;50828;53.756;21.140;2023-12-20T20:11:08;98053.65;;;4.27;73.46
64460;BME280;50828;53.756;21.140;2023-12-20T20:16:35;98061.57;;;4.26;73.19
64460;BME280;50828;53.756;21.140;2023-12-20T20:21:43;98062.11;;;4.26;72.89
64460;BME280;50828;53.756;21.140;2023-12-20T20:26:52;98069.67;;;4.24;72.57
64460;BME280;50828;53.756;21.140;2023-12-20T20:32:07;98066.93;;;4.22;72.55
64460;BME280;50828;53.756;21.140;2023-12-20T20:37:15;98063.27;;;4.22;72.55
64460;BME280;50828;53.756;21.140;2023-12-20T20:42:22;98063.48;;;4.22;72.38
64460;BME280;50828;53.756;21.140;2023-12-20T20:47:31;98066.02;;;4.23;72.31
64460;BME280;50828;53.756;21.140;2023-12-20T20:52:39;98069.09;;;4.25;72.13
64460;BME280;50828;53.756;21.140;2023-12-20T20:57:53;98056.08;;;4.28;72.32
64460;BME280;50828;53.756;21.140;2023-12-20T21:03:01;98056.30;;;4.30;72.02
64460;BME280;50828;53.756;21.140;2023-12-20T21:08:11;98060.35;;;4.29;71.81
64460;BME280;50828;53.756;21.140;2023-12-20T21:13:18;98061.98;;;4.28;71.88
64460;BME280;50828;53.756;21.140;2023-12-20T21:18:25;98054.42;;;4.26;71.76
64460;BME280;50828;53.756;21.140;2023-12-20T21:23:34;98047.91;;;4.23;71.47
64460;BME280;50828;53.756;21.140;2023-12-20T21:28:41;98050.60;;;4.21;71.40
64460;BME280;50828;53.756;21.140;2023-12-20T21:33:48;98050.64;;;4.17;71.38
64460;BME280;50828;53.756;21.140;2023-12-20T21:38:58;98051.60;;;4.11;71.28
64460;BME280;50828;53.756;21.140;2023-12-20T21:44:06;98048.23;;;4.05;71.22
64460;BME280;50828;53.756;21.140;2023-12-20T21:49:14;98053.89;;;4.00;70.98
64460;BME280;50828;53.756;21.140;2023-12-20T21:54:21;98064.23;;;3.94;71.21
64460;BME280;50828;53.756;21.140;2023-12-20T21:59:28;98076.52;;;3.89;71.52
64460;BME280;50828;53.756;21.140;2023-12-20T22:04:36;98075.42;;;3.85;71.76
64460;BME280;50828;53.756;21.140;2023-12-20T22:09:43;98083.75;;;3.82;71.98
64460;BME280;50828;53.756;21.140;2023-12-20T22:14:50;98076.91;;;3.80;71.92
64460;BME280;50828;53.756;21.140;2023-12-20T22:19:58;98076.69;;;3.77;71.91
64460;BME280;50828;53.756;21.140;2023-12-20T22:25:07;98081.66;;;3.74;72.03
64460;BME280;50828;53.756;21.140;2023-12-20T22:30:15;98081.23;;;3.73;71.93
64460;BME280;50828;53.756;21.140;2023-12-20T22:35:22;98080.67;;;3.70;71.94
64460;BME280;50828;53.756;21.140;2023-12-20T22:40:29;98090.88;;;3.67;71.98
64460;BME280;50828;53.756;21.140;2023-12-20T22:45:37;98085.75;;;3.65;71.89
64460;BME280;50828;53.756;21.140;2023-12-20T22:50:47;98084.00;;;3.65;71.89
64460;BME280;50828;53.756;21.140;2023-12-20T22:55:54;98078.92;;;3.66;71.80
64460;BME280;50828;53.756;21.140;2023-12-20T23:01:02;98079.23;;;3.66;71.93
64460;BME280;50828;53.756;21.140;2023-12-20T23:06:09;98080.27;;;3.67;71.65
64460;BME280;50828;53.756;21.140;2023-12-20T23:11:17;98086.00;;;3.63;71.50
64460;BME280;50828;53.756;21.140;2023-12-20T23:16:24;98097.85;;;3.59;71.56
64460;BME280;50828;53.756;21.140;2023-12-20T23:21:31;98099.16;;;3.57;71.60
64460;BME280;50828;53.756;21.140;2023-12-20T23:26:40;98098.67;;;3.52;71.58
64460;BME280;50828;53.756;21.140;2023-12-20T23:31:48;98096.06;;;3.48;71.42
64460;BME280;50828;53.756;21.140;2023-12-20T23:36:55;98090.14;;;3.44;71.77
64460;BME280;50828;53.756;21.140;2023-12-20T23:42:03;98086.60;;;3.41;71.77
64460;BME280;50828;53.756;21.140;2023-12-20T23:47:10;98088.27;;;3.39;71.87
64460;BME280;50828;53.756;21.140;2023-12-20T23:52:18;98088.35;;;3.37;71.91
64460;BME280;50828;53.756;21.140;2023-12-20T23:57:25;98090.31;;;3.36;71.90
